Flight Track Log - Related Links

Times and Time Zones

All times are in EDT time to prevent confusion due to time zone crossing. See the SWA1718 flight status page for this flight to view local times or setup timezone preferences in your user account.

Time Position Orientation Groundspeed Altitude Reporting Facility
EDT Latitude Longitude Course Direction KTS MPH feet Rate Location/Type
19:38 39.9167 -104.6500 90° East 199 229 7,700  Level Denver TRACON
19:39 39.9500 -104.5833 57° Northeast 243 280 10,100 1,200 Climbing Denver TRACON
19:40 39.9500 -104.4833 90° East 297 342 10,100 100 Level Denver TRACON
19:41 39.9500 -104.3667 90° East 302 348 10,300 1,850 Climbing Denver TRACON
19:42 39.9333 -104.2667 102° East 305 351 13,800 2,850 Climbing Denver TRACON
19:43 39.9000 -104.1500 110° East 347 399 16,000 2,080 Climbing Denver TRACON
19:44 39.8833 -103.7181 90° East  Level FlightAware Approximate
19:44 39.8997 -104.1150 91° East 366 421 16,400  Level Denver Center
19:45 39.8800 -103.9728 100° East 398 458 19,300 2,683 Climbing Denver Center
19:46 39.8775 -103.8078 91° East 435 501 21,900 2,371 Climbing Denver Center
19:47 39.8931 -103.6533 82° East 437 503 24,200 2,146 Climbing Denver Center
19:48 39.9131 -103.4803 81° East 474 545 26,300 1,902 Climbing Denver Center
19:49 39.9325 -103.3025 82° East 492 566 28,100 1,355 Climbing Denver Center
19:50 39.9542 -103.1158 81° East 515 593 29,100 1,122 Climbing Denver Center
19:51 39.9758 -102.9156 82° East 551 634 30,400 1,610 Climbing Denver Center
19:52 40.0019 -102.6761 82° East 565 650 32,400 2,177 Climbing Denver Center
19:53 40.0228 -102.4792 82° East 560 644 34,900 1,268 Climbing Denver Center
19:54 40.0411 -102.2967 82° East 534 615 35,000 844 Climbing Denver Center
19:55 40.0628 -102.0856 82° East 524 603 36,800 882 Climbing Denver Center
19:56 40.0833 -101.8769 83° East 519 597 37,000 97 Climbing Denver Center
19:57 40.1028 -101.6750 83° East 508 585 37,000  Level Denver Center
19:58 40.1192 -101.5006 83° East 508 585 37,000  Level Denver Center
19:59 40.1389 -101.2969 83° East 508 585 37,000 -293 Level Denver Center
20:00 40.1553 -101.1239 83° East 505 581 36,400 -774 Descending Denver Center
20:01 40.1753 -100.9183 83° East 512 589 35,400 -683 Descending Denver Center
20:02 40.1906 -100.7419 83° East 514 592 35,000 -195 Descending Denver Center
20:03 40.2050 -100.5383 85° East 508 585 35,000  Level Denver Center
20:04 40.2075 -100.3639 89° East 505 581 35,000  Level Denver Center
20:05 40.2106 -100.1578 89° East 509 586 35,000  Level Denver Center
20:07 40.2128 -99.9778 89° East 519 597 35,000  Level Denver Center
20:08 40.2158 -99.7939 89° East 519 597 35,000  Level Denver Center
20:09 40.2178 -99.5669 89° East 521 600 35,000  Level Denver Center
20:10 40.2200 -99.3786 89° East 520 598 35,000  Level Denver Center
20:11 40.2217 -99.1503 89° East 525 604 35,000  Level Denver Center
20:12 40.2217 -98.9608 90° East 524 603 35,000  Level Denver Center
20:13 40.2225 -98.7714 90° East 524 603 35,000  Level Denver Center
20:13 40.2222 -98.6978 90° East 522 601 35,000  Level Minneapolis Center
20:14 40.2225 -98.5092 90° East 520 598 35,000  Level Minneapolis Center
20:15 40.2222 -98.3225 90° East 518 596 35,000  Level Minneapolis Center
20:16 40.2219 -98.1350 90° East 517 595 35,000  Level Minneapolis Center
20:17 40.2219 -97.9467 90° East 518 596 35,000  Level Minneapolis Center
20:18 40.2203 -97.7206 90° East 520 598 35,000  Level Minneapolis Center
20:19 40.2183 -97.5314 91° East 520 598 35,000  Level Minneapolis Center
20:20 40.2161 -97.3433 91° East 519 597 35,000  Level Minneapolis Center
20:21 40.2147 -97.1508 90° East 516 594 35,000  Level Minneapolis Center
20:23 40.2119 -96.9658 91° East 513 590 35,000  Level Minneapolis Center
20:24 40.2097 -96.7803 91° East 511 588 35,000  Level Minneapolis Center
20:25 40.2072 -96.5964 91° East 509 586 35,000  Level Minneapolis Center
20:26 40.2036 -96.4125 91° East 508 585 35,000  Level Minneapolis Center
20:27 40.2047 -96.1900 90° East 510 587 35,000  Level Minneapolis Center
20:28 40.2442 -95.9733 77° East 512 589 35,000  Level Minneapolis Center
20:29 40.2775 -95.7850 77° East 527 606 35,000  Level Minneapolis Center
20:30 40.3119 -95.6017 76° East 525 604 35,000  Level Minneapolis Center
20:31 40.3450 -95.4172 77° East 523 602 35,000  Level Minneapolis Center
20:32 40.3792 -95.2339 76° East 521 600 35,000  Level Minneapolis Center
20:33 40.4114 -95.0508 77° East 520 598 35,000  Level Minneapolis Center
20:34 40.4503 -94.8286 77° East 522 601 35,000  Level Minneapolis Center
20:35 40.4828 -94.6433 77° East 522 601 35,000  Level Minneapolis Center
20:36 40.5125 -94.4686 77° East 521 600 35,000  Level Minneapolis Center
20:37 40.5447 -94.2839 77° East 522 601 35,000  Level Minneapolis Center
20:38 40.5731 -94.1011 78° East 518 596 35,000  Level Minneapolis Center
20:39 40.6067 -93.8778 79° East 520 598 35,000  Level Minneapolis Center
20:40 40.6342 -93.6919 79° East 520 598 35,000  Level Minneapolis Center
20:41 40.6603 -93.5072 79° East 518 596 35,000  Level Minneapolis Center
20:42 40.6872 -93.3228 79° East 518 596 35,000  Level Minneapolis Center
20:43 40.7139 -93.1347 79° East 520 598 35,000  Level Minneapolis Center
20:44 40.7406 -92.9489 79° East 519 597 35,000  Level Minneapolis Center
20:45 40.7567 -92.8353 79° East 517 595 35,000  Level Chicago Center
20:46 40.7822 -92.6486 80° East 518 596 35,000 -341 Level Chicago Center
20:47 40.8078 -92.4597 80° East 520 598 34,300 -774 Descending Chicago Center
20:48 40.8328 -92.2750 80° East 516 594 33,400 -919 Descending Chicago Center
20:49 40.8564 -92.0906 80° East 512 589 32,400 -1,016 Descending Chicago Center
20:50 40.8864 -91.8708 80° East 510 587 31,300 -1,016 Descending Chicago Center
20:51 40.9097 -91.6878 80° East 507 583 30,300 -927 Descending Chicago Center
20:52 40.9333 -91.5053 80° East 507 583 29,400 -634 Descending Chicago Center
20:53 40.9561 -91.3217 81° East 510 587 29,000 -194 Descending Chicago Center
20:54 40.9797 -91.1319 81° East 508 585 29,000 -677 Level Chicago Center
20:55 41.0028 -90.9461 81° East 510 587 27,600 -1,935 Descending Chicago Center
20:56 41.0250 -90.7633 81° East 504 580 25,000 -1,790 Descending Chicago Center
20:57 41.0456 -90.5872 81° East 489 563 23,900 -968 Descending Chicago Center
20:58 41.0689 -90.3950 81° East 441 507 23,000 -439 Descending Chicago Center
20:59 41.0864 -90.2394 81° East 427 491 23,000 -780 Level Chicago Center
21:00 41.1044 -90.0858 81° East 420 483 21,400 -1,742 Descending Chicago Center
21:01 41.1222 -89.9336 81° East 415 478 19,400 -1,790 Descending Chicago Center
21:02 41.1392 -89.7833 81° East 409 471 17,700 -1,306 Descending Chicago Center
21:03 41.1758 -89.6439 71° East 400 460 16,700 -968 Descending Chicago Center
21:04 41.2142 -89.5072 70° East 395 455 15,700 -976 Descending Chicago Center
21:05 41.2531 -89.3736 69° East 390 449 14,700 -1,073 Descending Chicago Center
21:06 41.2983 -89.2117 70° East 388 447 13,500 -1,355 Descending Chicago Center
21:08 41.3339 -89.0817 70° East 373 429 11,900 -1,500 Descending Chicago Center
21:09 41.3683 -88.9564 70° East 366 421 10,400 -1,161 Descending Chicago Center
21:10 41.4033 -88.8364 69° East 354 407 9,500 -1,065 Descending Chicago Center
21:11 41.4339 -88.7228 70° East 333 383 8,200 -1,210 Descending Chicago Center
21:12 41.4653 -88.6111 69° East 326 375 7,000 -1,065 Descending Chicago Center
21:13 41.5000 -88.4844 70° East 315 362 6,000 -484 Descending Chicago Center
21:14 41.5219 -88.3869 73° East 294 338 6,000 -97 Level Chicago Center
21:15 41.5433 -88.2894 74° East 281 323 5,800 -390 Descending Chicago Center
21:16 41.5517 -88.1886 84° East 275 316 5,200 -387 Descending Chicago Center
21:17 41.5597 -88.0886 84° East 272 313 5,000 -97 Descending Chicago Center
21:18 41.5675 -87.9886 84° East 270 311 5,000  Level Chicago Center
21:19 41.5731 -87.8911 86° East 267 307 5,000  Level Chicago Center
21:20 41.5806 -87.8047 83° East 250 288 5,000  Level Chicago Center
21:21 41.5881 -87.7164 83° East 221 254 5,000 -242 Level Chicago Center
21:22 41.5742 -87.6519 106° East 197 227 4,500 -629 Descending Chicago Center
21:23 41.5992 -87.5992 58° Northeast 188 216 3,700 -871 Descending Chicago Center
21:24 41.6419 -87.5931 North 177 204 2,700 -585 Descending Chicago Center
21:25 41.6842 -87.6194 335° Northwest 173 199 2,500 -121 Descending Chicago Center
21:26 41.7167 -87.6500 325° Northwest 166 191 2,500 -367 Level Chicago TRACON
21:27 41.7333 -87.6833 304° West 127 146 1,900 -650 Descending Chicago TRACON
21:28 41.7667 -87.7167 323° Northwest 120 138 1,200 -700 Descending Chicago TRACON
21:30 41.7833 -87.7500 51° Northeast  Level FlightAware Approximate

Login

Don't have an account? Register now (free) for customized features, flight alerts, and more!